Time;durP1;ratioP1;P1;durP2;ratioP2;P2;SDS_P1;SDS_P2;PMS_P1;PMS_P2;Temp;Humidity;BMP_temperature;BMP_pressure;BME280_temperature;BME280_humidity;BME280_pressure;Samples;Min_cycle;Max_cycle;Signal;HPM_P1;HPM_P2
2021/06/21 00:01:52;;;;;;;5.82;4.03;;;21.90;99.90;;;;;;4142442;28;20026;-81
2021/06/21 00:03:52;;;;;;;6.63;4.50;;;21.80;99.90;;;;;;4139892;28;20036;-82
2021/06/21 00:05:53;;;;;;;4.57;3.90;;;21.80;99.90;;;;;;4142483;28;20038;-82
2021/06/21 00:07:54;;;;;;;8.57;4.90;;;21.80;99.90;;;;;;4136904;28;20095;-82
2021/06/21 00:09:54;;;;;;;6.28;4.43;;;21.70;99.90;;;;;;4141547;28;20354;-81
2021/06/21 00:11:55;;;;;;;4.57;3.67;;;21.70;99.90;;;;;;4121843;28;20027;-81
2021/06/21 00:13:56;;;;;;;4.55;3.67;;;21.60;99.90;;;;;;4141383;28;20573;-81
2021/06/21 00:15:56;;;;;;;6.55;4.60;;;21.70;99.90;;;;;;4125889;28;20030;-81
2021/06/21 00:17:57;;;;;;;7.47;4.43;;;21.60;99.90;;;;;;4139673;28;20577;-81
2021/06/21 00:19:58;;;;;;;4.43;3.78;;;21.60;99.90;;;;;;4124156;28;20042;-82
2021/06/21 00:21:59;;;;;;;6.90;4.40;;;21.60;99.90;;;;;;4142703;28;20038;-82
2021/06/21 00:24:00;;;;;;;5.05;3.70;;;21.60;99.90;;;;;;4141098;28;20034;-82
2021/06/21 00:26:01;;;;;;;8.80;4.35;;;21.60;99.90;;;;;;4124548;28;20028;-82
2021/06/21 00:28:02;;;;;;;6.57;4.13;;;21.50;99.90;;;;;;4141695;28;20092;-81
2021/06/21 00:30:05;;;;;;;4.72;3.65;;;21.50;99.90;;;;;;4141754;28;20533;-82
2021/06/21 00:32:06;;;;;;;5.38;4.07;;;21.50;99.90;;;;;;4123600;28;20023;-82
2021/06/21 00:34:07;;;;;;;6.95;3.95;;;21.40;99.90;;;;;;4140816;28;20113;-81
2021/06/21 00:36:08;;;;;;;6.38;4.30;;;21.40;99.90;;;;;;4140219;28;20051;-81
2021/06/21 00:38:09;;;;;;;5.75;3.25;;;21.40;99.90;;;;;;4137937;28;20129;-81
2021/06/21 00:40:11;;;;;;;7.32;4.03;;;21.40;99.90;;;;;;4122235;28;20051;-81
2021/06/21 00:42:13;;;;;;;6.40;3.90;;;21.40;99.90;;;;;;4136794;28;20093;-80
2021/06/21 00:44:13;;;;;;;6.00;4.13;;;21.30;99.90;;;;;;4140045;28;20042;-80
2021/06/21 00:46:14;;;;;;;6.40;3.90;;;21.20;99.90;;;;;;4125038;28;20115;-80
2021/06/21 00:48:15;;;;;;;5.80;4.00;;;21.10;99.90;;;;;;4140536;28;20478;-80
2021/06/21 00:50:15;;;;;;;6.80;4.32;;;21.10;99.90;;;;;;4140053;28;20037;-81
2021/06/21 00:52:17;;;;;;;6.45;3.90;;;21.00;99.90;;;;;;4138825;28;20026;-81
2021/06/21 00:54:19;;;;;;;5.00;3.70;;;20.90;99.90;;;;;;4140893;28;20045;-81
2021/06/21 00:56:20;;;;;;;4.47;3.50;;;20.90;99.90;;;;;;4139916;28;20305;-81
2021/06/21 00:58:21;;;;;;;6.68;3.70;;;20.90;99.90;;;;;;4137594;28;20411;-81
2021/06/21 01:00:24;;;;;;;4.43;3.38;;;20.90;99.90;;;;;;4144380;28;20037;-81
2021/06/21 01:02:26;;;;;;;7.22;4.43;;;20.90;99.90;;;;;;4141895;28;20034;-81
2021/06/21 01:04:27;;;;;;;6.47;3.55;;;20.80;99.90;;;;;;4142056;28;20042;-80
2021/06/21 01:06:29;;;;;;;6.88;3.97;;;20.80;99.90;;;;;;4143629;28;20153;-80
2021/06/21 01:08:31;;;;;;;4.25;3.58;;;20.70;99.90;;;;;;4142511;28;20524;-80
2021/06/21 01:10:32;;;;;;;5.68;3.85;;;20.70;99.90;;;;;;4141902;28;20510;-80
2021/06/21 01:12:47;;;;;;;5.95;3.72;;;20.60;99.90;;;;;;4141439;28;20129;-80
2021/06/21 01:14:52;;;;;;;5.63;3.80;;;20.50;99.90;;;;;;4139594;28;20408;-81
2021/06/21 01:17:03;;;;;;;7.00;4.03;;;20.50;99.90;;;;;;4142076;28;20428;-81
2021/06/21 01:19:23;;;;;;;6.40;4.03;;;20.40;99.90;;;;;;4140460;28;20153;-81
2021/06/21 01:21:35;;;;;;;7.63;3.72;;;20.40;99.90;;;;;;4135907;28;20034;-81
2021/06/21 01:23:54;;;;;;;5.05;3.65;;;20.30;99.90;;;;;;4121737;28;20053;-81
2021/06/21 01:26:12;;;;;;;4.97;4.07;;;20.30;99.90;;;;;;4138054;28;20037;-81
2021/06/21 01:28:39;;;;;;;6.53;4.10;;;20.20;99.90;;;;;;4123673;28;20044;-81
2021/06/21 01:30:58;;;;;;;5.63;4.43;;;20.20;99.90;;;;;;4125335;28;20027;-80
2021/06/21 01:33:01;;;;;;;5.68;3.60;;;20.20;99.90;;;;;;4142903;28;20671;-80
2021/06/21 01:35:02;;;;;;;;;;;20.10;99.90;;;;;;4143748;28;20030;-80
2021/06/21 01:37:05;;;;;;;6.85;4.65;;;20.10;99.90;;;;;;4127486;28;20329;-80
2021/06/21 01:39:06;;;;;;;6.40;4.88;;;20.00;99.90;;;;;;4125857;28;20045;-81
2021/06/21 01:41:14;;;;;;;8.95;5.32;;;19.90;99.90;;;;;;4144094;28;20034;-81
2021/06/21 01:43:18;;;;;;;8.45;4.93;;;19.90;99.90;;;;;;4142376;28;20124;-81
2021/06/21 01:45:19;;;;;;;5.90;4.15;;;19.90;99.90;;;;;;4142459;28;20042;-81
2021/06/21 01:47:22;;;;;;;7.47;4.97;;;19.80;99.90;;;;;;4142997;28;20072;-81
2021/06/21 01:49:25;;;;;;;6.60;4.65;;;19.80;99.90;;;;;;4142818;28;20459;-81
2021/06/21 01:51:29;;;;;;;7.60;4.95;;;19.90;99.90;;;;;;4143610;28;20030;-81
2021/06/21 01:53:33;;;;;;;11.50;6.32;;;19.90;99.90;;;;;;4124368;28;20038;-80
2021/06/21 01:55:37;;;;;;;7.90;4.90;;;19.80;99.90;;;;;;4122962;28;20035;-80
2021/06/21 01:57:39;;;;;;;9.43;4.68;;;19.80;99.90;;;;;;4140161;28;20073;-81
2021/06/21 01:59:41;;;;;;;6.45;4.70;;;19.80;99.90;;;;;;4139910;28;20089;-81
2021/06/21 02:01:43;;;;;;;;;;;19.80;99.90;;;;;;4124662;28;20034;-81
2021/06/21 02:03:49;;;;;;;7.40;4.38;;;19.70;99.90;;;;;;4140220;28;19913;-81
2021/06/21 02:05:51;;;;;;;6.10;4.32;;;19.70;99.90;;;;;;4144701;28;20033;-81
2021/06/21 02:07:53;;;;;;;7.43;4.40;;;19.70;99.90;;;;;;4125707;28;20081;-82
2021/06/21 02:09:55;;;;;;;8.38;4.72;;;19.70;99.90;;;;;;4141440;28;20046;-80
2021/06/21 02:11:57;;;;;;;7.22;5.30;;;19.70;99.90;;;;;;4123573;28;20058;-80
2021/06/21 02:13:59;;;;;;;7.90;4.93;;;19.70;99.90;;;;;;4141482;28;20129;-81
2021/06/21 02:16:00;;;;;;;4.83;4.00;;;19.70;99.90;;;;;;4125918;28;20100;-81
2021/06/21 02:18:01;;;;;;;10.30;5.18;;;19.70;99.90;;;;;;4139246;28;20064;-81
2021/06/21 02:20:04;;;;;;;5.30;4.13;;;19.70;99.90;;;;;;4126151;28;20034;-81
2021/06/21 02:22:04;;;;;;;5.00;3.60;;;19.70;99.90;;;;;;4141721;28;20029;-81
2021/06/21 02:24:05;;;;;;;5.90;4.28;;;19.80;99.90;;;;;;4125328;28;20109;-81
2021/06/21 02:26:06;;;;;;;6.22;4.13;;;19.70;99.90;;;;;;4141797;28;20696;-81
2021/06/21 02:28:07;;;;;;;6.57;4.75;;;19.80;99.90;;;;;;4125657;28;20454;-81
2021/06/21 02:30:11;;;;;;;8.68;4.68;;;19.70;99.90;;;;;;4140948;28;20102;-80
2021/06/21 02:32:11;;;;;;;6.78;3.88;;;19.60;99.90;;;;;;4125476;28;20101;-80
2021/06/21 02:34:13;;;;;;;4.85;4.28;;;19.60;99.90;;;;;;4143646;28;20045;-79
2021/06/21 02:36:14;;;;;;;4.18;3.50;;;19.50;99.90;;;;;;4141293;28;20030;-80
2021/06/21 02:38:15;;;;;;;5.05;3.72;;;19.50;99.90;;;;;;4139903;28;20310;-80
2021/06/21 02:40:16;;;;;;;4.75;3.45;;;19.50;99.90;;;;;;4142040;28;20033;-80
2021/06/21 02:42:17;;;;;;;5.28;3.15;;;19.60;99.90;;;;;;4140158;28;20080;-80
2021/06/21 02:44:18;;;;;;;3.45;3.00;;;19.60;99.90;;;;;;4141826;28;20041;-80
2021/06/21 02:46:19;;;;;;;9.15;4.10;;;19.60;99.90;;;;;;4138654;28;20410;-80
2021/06/21 02:48:20;;;;;;;6.00;3.50;;;19.60;99.90;;;;;;4126170;28;20573;-80
2021/06/21 02:50:21;;;;;;;5.60;3.17;;;19.50;99.90;;;;;;4143152;28;20041;-80
2021/06/21 02:52:37;;;;;;;3.97;2.72;;;19.50;99.90;;;;;;4122518;28;20070;-80
2021/06/21 02:54:39;;;;;;;3.97;3.05;;;19.50;99.90;;;;;;4141925;28;20064;-80
2021/06/21 02:57:16;;;;;;;3.92;2.20;;;19.50;99.90;;;;;;4137204;28;20306;-80
2021/06/21 02:59:20;;;;;;;3.33;2.35;;;19.40;99.90;;;;;;4141614;28;20157;-80
2021/06/21 03:01:23;;;;;;;2.70;1.98;;;19.40;99.90;;;;;;4142352;28;20056;-80
2021/06/21 03:03:27;;;;;;;5.72;2.45;;;19.30;99.90;;;;;;4141667;28;20034;-80
2021/06/21 03:05:29;;;;;;;2.13;1.60;;;19.30;99.90;;;;;;4125339;28;20033;-80
2021/06/21 03:07:31;;;;;;;4.00;1.90;;;19.30;99.90;;;;;;4142146;28;20034;-80
2021/06/21 03:09:33;;;;;;;2.83;1.77;;;19.30;99.90;;;;;;4125342;28;20030;-80
2021/06/21 03:11:34;;;;;;;1.93;1.73;;;19.20;99.90;;;;;;4123626;28;20199;-80
2021/06/21 03:13:37;;;;;;;7.22;1.63;;;19.10;99.90;;;;;;4143328;28;20053;-80
2021/06/21 03:15:37;;;;;;;2.00;1.80;;;19.00;99.90;;;;;;4140839;28;20489;-80
2021/06/21 03:17:39;;;;;;;2.55;1.50;;;18.90;99.90;;;;;;4125923;28;20046;-80
2021/06/21 03:19:42;;;;;;;3.22;1.98;;;19.00;99.90;;;;;;4141921;28;20045;-80
2021/06/21 03:21:44;;;;;;;5.97;2.60;;;18.90;99.90;;;;;;4125060;28;20075;-80
2021/06/21 03:23:49;;;;;;;2.20;1.90;;;18.80;99.90;;;;;;4142025;28;20037;-80
2021/06/21 03:25:54;;;;;;;3.17;1.65;;;18.70;99.90;;;;;;4125644;28;20254;-81
2021/06/21 03:27:56;;;;;;;2.83;1.90;;;18.70;99.90;;;;;;4138726;28;20037;-81
2021/06/21 03:29:58;;;;;;;3.42;1.90;;;18.70;99.90;;;;;;4125608;28;20483;-81
2021/06/21 03:32:25;;;;;;;4.22;2.95;;;18.70;99.90;;;;;;4141072;28;20044;-81
2021/06/21 03:34:26;;;;;;;5.65;2.97;;;18.70;99.90;;;;;;4141061;28;20045;-81
2021/06/21 03:36:26;;;;;;;3.78;2.45;;;18.70;99.90;;;;;;4143185;28;21202;-81
2021/06/21 03:38:29;;;;;;;3.88;2.50;;;18.70;99.90;;;;;;4122628;28;20042;-81
2021/06/21 03:40:29;;;;;;;2.78;2.15;;;18.60;99.90;;;;;;4142702;28;20030;-81
2021/06/21 03:42:30;;;;;;;3.15;2.00;;;18.70;99.90;;;;;;4121686;28;20039;-81
2021/06/21 03:44:31;;;;;;;2.63;1.80;;;18.70;99.90;;;;;;4137863;28;20088;-81
2021/06/21 03:46:32;;;;;;;1.70;1.60;;;18.70;99.90;;;;;;4141914;28;20030;-81
2021/06/21 03:48:32;;;;;;;3.05;2.10;;;18.70;99.90;;;;;;4140642;28;20096;-81
2021/06/21 03:50:33;;;;;;;3.47;2.00;;;18.70;99.90;;;;;;4121470;28;20034;-81
2021/06/21 03:52:34;;;;;;;2.33;1.90;;;18.70;99.90;;;;;;4137206;28;20049;-81
2021/06/21 03:54:35;;;;;;;1.98;1.88;;;18.80;99.90;;;;;;4125069;28;20041;-81
2021/06/21 03:56:35;;;;;;;2.97;2.00;;;18.70;99.90;;;;;;4140067;28;20038;-81
2021/06/21 03:58:36;;;;;;;3.13;2.55;;;18.70;99.90;;;;;;4125541;28;20494;-81
2021/06/21 04:00:37;;;;;;;4.40;2.08;;;18.70;99.90;;;;;;4125031;28;20121;-81
2021/06/21 04:02:38;;;;;;;1.98;1.73;;;18.60;99.90;;;;;;4140202;28;20041;-81
2021/06/21 04:04:39;;;;;;;2.30;1.88;;;18.60;99.90;;;;;;4125256;28;20034;-81
2021/06/21 04:06:39;;;;;;;2.78;2.53;;;18.60;99.90;;;;;;4139668;28;20054;-81
2021/06/21 04:08:40;;;;;;;2.63;2.00;;;18.50;99.90;;;;;;4124187;28;20503;-81
2021/06/21 04:10:41;;;;;;;2.35;2.10;;;18.50;99.90;;;;;;4140832;28;20053;-81
2021/06/21 04:12:41;;;;;;;2.20;2.00;;;18.50;99.90;;;;;;4136044;28;20030;-81
2021/06/21 04:14:42;;;;;;;2.50;1.88;;;18.50;99.90;;;;;;4139848;28;20037;-81
2021/06/21 04:16:43;;;;;;;2.42;1.85;;;18.40;99.90;;;;;;4140812;28;20506;-81
2021/06/21 04:18:43;;;;;;;2.25;2.05;;;18.40;99.90;;;;;;4136987;28;20081;-81
2021/06/21 04:20:46;;;;;;;2.97;2.17;;;18.40;99.90;;;;;;4118602;28;20043;-81
2021/06/21 04:22:47;;;;;;;2.90;2.30;;;18.40;99.90;;;;;;4124696;28;20046;-81
2021/06/21 04:24:47;;;;;;;3.10;2.80;;;18.30;99.90;;;;;;4125201;28;20173;-81
2021/06/21 04:26:48;;;;;;;3.58;2.60;;;18.30;99.90;;;;;;4142327;28;20044;-81
2021/06/21 04:28:49;;;;;;;2.70;2.15;;;18.20;99.90;;;;;;4124135;28;20058;-81
2021/06/21 04:30:49;;;;;;;2.80;2.17;;;18.20;99.90;;;;;;4125122;28;20057;-81
2021/06/21 04:32:51;;;;;;;2.38;2.17;;;18.20;99.90;;;;;;4140614;28;20511;-81
2021/06/21 04:34:52;;;;;;;2.17;1.80;;;18.20;99.90;;;;;;4124737;28;20034;-81
2021/06/21 04:36:53;;;;;;;3.03;1.77;;;18.10;99.90;;;;;;4124213;28;20045;-81
2021/06/21 04:38:53;;;;;;;1.90;1.40;;;18.10;99.90;;;;;;4139129;28;20042;-81
2021/06/21 04:40:54;;;;;;;4.00;1.90;;;18.10;99.90;;;;;;4141007;28;20030;-81
2021/06/21 04:42:55;;;;;;;1.50;1.40;;;18.00;99.90;;;;;;4123115;28;20466;-81
2021/06/21 04:44:55;;;;;;;2.25;1.88;;;18.10;99.90;;;;;;4136310;28;20506;-81
2021/06/21 04:46:56;;;;;;;2.53;2.05;;;18.10;99.90;;;;;;4141842;28;20478;-82
2021/06/21 04:48:56;;;;;;;2.20;2.00;;;18.10;99.90;;;;;;4124304;28;20144;-81
2021/06/21 04:50:57;;;;;;;3.00;2.20;;;18.10;99.90;;;;;;4140663;28;20273;-81
2021/06/21 04:52:58;;;;;;;2.70;2.50;;;18.00;99.90;;;;;;4139765;28;20084;-81
2021/06/21 04:55:02;;;;;;;2.25;2.05;;;18.00;99.90;;;;;;4137831;28;20053;-81
2021/06/21 04:57:04;;;;;;;2.78;2.08;;;18.00;99.90;;;;;;4140531;28;20045;-81
2021/06/21 04:59:05;;;;;;;2.20;1.88;;;18.00;99.90;;;;;;4141898;28;20052;-81
2021/06/21 05:01:07;;;;;;;2.45;1.85;;;18.00;99.90;;;;;;4137746;28;20041;-81
2021/06/21 05:03:07;;;;;;;2.33;1.98;;;18.00;99.90;;;;;;4124553;28;20133;-85
2021/06/21 05:05:09;;;;;;;4.18;1.92;;;18.00;99.90;;;;;;4146835;28;20077;-81
2021/06/21 05:07:10;;;;;;;2.13;1.88;;;17.90;99.90;;;;;;4150516;28;20057;-82
2021/06/21 05:09:11;;;;;;;1.95;1.75;;;18.00;99.90;;;;;;4153269;28;20038;-81
2021/06/21 05:11:16;;;;;;;2.13;1.90;;;18.00;99.90;;;;;;4147646;28;20633;-81
2021/06/21 05:13:17;;;;;;;2.30;2.10;;;18.00;99.90;;;;;;4147708;28;20061;-81
2021/06/21 05:15:18;;;;;;;1.65;1.50;;;18.00;99.90;;;;;;4146549;28;20076;-78
2021/06/21 05:17:18;;;;;;;1.30;1.20;;;18.00;99.90;;;;;;4144926;28;20053;-78
2021/06/21 05:19:19;;;;;;;1.45;1.30;;;18.00;99.90;;;;;;4148138;28;20580;-78
2021/06/21 05:21:20;;;;;;;1.70;1.52;;;18.00;99.90;;;;;;4134530;28;20653;-78
2021/06/21 05:23:20;;;;;;;1.50;1.40;;;18.00;99.90;;;;;;4136560;28;20048;-78
2021/06/21 05:25:33;;;;;;;2.95;2.00;;;18.00;99.90;;;;;;4126723;28;20502;-78
2021/06/21 05:27:34;;;;;;;3.08;1.60;;;17.90;99.90;;;;;;4142446;28;20042;-78
2021/06/21 05:29:35;;;;;;;1.92;1.48;;;17.90;99.90;;;;;;4126204;28;20162;-78
2021/06/21 05:31:41;;;;;;;1.45;1.30;;;17.90;99.90;;;;;;4145852;28;20036;-78
2021/06/21 05:33:44;;;;;;;1.38;1.27;;;17.90;99.90;;;;;;4140655;28;20114;-77
2021/06/21 05:35:45;;;;;;;1.70;1.60;;;17.90;99.90;;;;;;4127744;28;20038;-78
2021/06/21 05:37:45;;;;;;;1.55;1.45;;;17.90;99.90;;;;;;4139961;28;20652;-78
2021/06/21 05:39:46;;;;;;;2.05;1.70;;;17.80;99.90;;;;;;4146915;28;21967;-78
2021/06/21 05:41:46;;;;;;;1.63;1.52;;;17.90;99.90;;;;;;4145302;28;20062;-78
2021/06/21 05:43:47;;;;;;;1.95;1.83;;;17.90;99.90;;;;;;4145998;28;20534;-78
2021/06/21 05:45:47;;;;;;;1.88;1.38;;;17.80;99.90;;;;;;4146112;28;20076;-78
2021/06/21 05:47:48;;;;;;;1.92;1.73;;;17.80;99.90;;;;;;4131553;28;20034;-78
2021/06/21 05:49:48;;;;;;;1.30;1.20;;;17.80;99.90;;;;;;4149907;28;20030;-78
2021/06/21 05:51:57;;;;;;;1.63;1.48;;;17.70;99.90;;;;;;4148089;28;20127;-78
2021/06/21 05:54:00;;;;;;;1.52;1.42;;;17.70;99.90;;;;;;4147991;28;20138;-78
2021/06/21 05:56:00;;;;;;;1.10;1.10;;;17.80;99.90;;;;;;4147259;28;20045;-77
2021/06/21 05:58:01;;;;;;;1.83;1.70;;;17.80;99.90;;;;;;4141591;28;20034;-78
2021/06/21 06:00:04;;;;;;;2.33;1.60;;;17.70;99.90;;;;;;4144925;28;20109;-78
2021/06/21 06:02:05;;;;;;;1.40;1.30;;;17.60;99.90;;;;;;4145699;28;20437;-78
2021/06/21 06:04:05;;;;;;;2.78;1.35;;;17.60;99.90;;;;;;4143611;28;20030;-78
2021/06/21 06:06:06;;;;;;;2.45;1.40;;;17.60;99.90;;;;;;4148369;28;20022;-78
2021/06/21 06:08:07;;;;;;;2.13;1.70;;;17.70;99.90;;;;;;4147299;28;20500;-78
2021/06/21 06:10:08;;;;;;;2.67;1.90;;;17.70;99.90;;;;;;4146953;28;20478;-78
2021/06/21 06:12:09;;;;;;;2.30;1.70;;;17.70;99.90;;;;;;4147079;28;20038;-78
2021/06/21 06:14:09;;;;;;;1.98;1.83;;;17.70;99.90;;;;;;4144409;28;20053;-78
2021/06/21 06:16:10;;;;;;;2.08;1.85;;;17.60;99.90;;;;;;4142396;28;20368;-78
2021/06/21 06:18:12;;;;;;;1.90;1.80;;;17.70;99.90;;;;;;4122770;28;20067;-78
2021/06/21 06:20:14;;;;;;;2.22;2.03;;;17.60;99.90;;;;;;4142588;28;20044;-78
2021/06/21 06:22:16;;;;;;;2.22;2.03;;;17.60;99.90;;;;;;4125103;28;20121;-77
2021/06/21 06:24:18;;;;;;;2.33;2.13;;;17.70;99.90;;;;;;4143044;28;20033;-78
2021/06/21 06:26:20;;;;;;;2.30;2.10;;;17.60;99.90;;;;;;4142925;28;20080;-78
2021/06/21 06:28:22;;;;;;;2.47;2.10;;;17.60;99.90;;;;;;4128829;28;20029;-78
2021/06/21 06:30:22;;;;;;;1.95;1.75;;;17.60;99.90;;;;;;4140994;28;20136;-78
2021/06/21 06:32:23;;;;;;;2.45;2.25;;;17.60;99.90;;;;;;4119403;28;20150;-78
2021/06/21 06:34:24;;;;;;;2.05;1.77;;;17.70;99.90;;;;;;4143697;28;20029;-78
2021/06/21 06:36:26;;;;;;;2.75;1.98;;;17.60;99.90;;;;;;4146577;28;20156;-78
2021/06/21 06:38:35;;;;;;;1.92;1.73;;;17.60;99.90;;;;;;4132605;28;20711;-78
2021/06/21 06:40:36;;;;;;;1.70;1.60;;;17.60;99.90;;;;;;4146039;28;20096;-78
2021/06/21 06:42:37;;;;;;;1.30;1.20;;;17.60;99.90;;;;;;4142962;28;20034;-78
2021/06/21 06:44:37;;;;;;;1.35;1.10;;;17.60;99.90;;;;;;4125172;28;20029;-78
2021/06/21 06:46:38;;;;;;;1.23;1.13;;;17.60;99.90;;;;;;4140850;28;20105;-78
2021/06/21 06:48:39;;;;;;;1.20;1.10;;;17.60;99.90;;;;;;4138775;28;20029;-78
2021/06/21 06:50:39;;;;;;;1.05;1.05;;;17.60;99.90;;;;;;4140796;28;20034;-78
2021/06/21 06:52:42;;;;;;;2.95;1.48;;;17.60;99.90;;;;;;4145339;28;20452;-78
2021/06/21 06:56:57;;;;;;;0.82;0.82;;;17.60;99.90;;;;;;4121789;28;20109;-78
2021/06/21 06:57:09;;;;;;;1.85;1.05;;;17.60;99.90;;;;;;4137851;28;20555;-78
2021/06/21 06:59:09;;;;;;;1.38;1.20;;;17.60;99.90;;;;;;4143158;28;20069;-78
2021/06/21 07:01:10;;;;;;;1.05;0.77;;;17.60;99.90;;;;;;4139862;28;20350;-78
2021/06/21 07:03:11;;;;;;;3.30;1.40;;;17.70;99.90;;;;;;4142388;28;20022;-78
2021/06/21 07:05:12;;;;;;;1.60;1.50;;;17.70;99.90;;;;;;4125584;28;20040;-78
2021/06/21 07:07:13;;;;;;;1.30;1.20;;;17.60;99.90;;;;;;4136808;28;20026;-78
2021/06/21 07:09:14;;;;;;;2.42;1.40;;;17.60;99.90;;;;;;4143322;28;20079;-78
2021/06/21 07:11:16;;;;;;;4.50;1.40;;;17.60;99.90;;;;;;4142925;28;20506;-78
2021/06/21 07:13:16;;;;;;;1.10;1.00;;;17.60;99.90;;;;;;4142068;28;20029;-78
2021/06/21 07:15:18;;;;;;;4.97;1.70;;;17.60;99.90;;;;;;4142272;28;20040;-78
2021/06/21 07:17:19;;;;;;;1.23;1.15;;;17.60;99.90;;;;;;4140091;28;20115;-78
2021/06/21 07:19:20;;;;;;;2.00;1.77;;;17.60;99.90;;;;;;4142118;28;20038;-78
2021/06/21 07:21:21;;;;;;;1.73;1.30;;;17.60;99.90;;;;;;4124757;28;20125;-78
2021/06/21 07:23:22;;;;;;;1.33;1.23;;;17.60;99.90;;;;;;4120388;28;20434;-78
2021/06/21 07:25:22;;;;;;;1.98;1.73;;;17.60;99.90;;;;;;4138317;28;20104;-79
2021/06/21 07:27:25;;;;;;;2.05;1.10;;;17.50;99.90;;;;;;4139610;28;20037;-78
2021/06/21 07:29:26;;;;;;;;;;;17.40;99.90;;;;;;4126520;28;20046;-79
2021/06/21 07:31:26;;;;;;;1.13;1.02;;;17.30;99.90;;;;;;4142115;28;20032;-78
2021/06/21 07:33:27;;;;;;;1.50;1.40;;;17.30;99.90;;;;;;4140492;28;20525;-78
2021/06/21 07:35:28;;;;;;;1.30;1.20;;;17.30;99.90;;;;;;4120171;28;20233;-78
2021/06/21 07:37:28;;;;;;;2.00;1.10;;;17.30;99.90;;;;;;4141233;28;20045;-78
2021/06/21 07:39:29;;;;;;;2.03;1.38;;;17.30;99.90;;;;;;4141999;28;20642;-78
2021/06/21 07:41:30;;;;;;;1.88;0.90;;;17.20;99.90;;;;;;4137598;28;20084;-78
2021/06/21 07:43:30;;;;;;;1.80;0.90;;;17.30;99.90;;;;;;4122221;28;20283;-78
2021/06/21 07:45:31;;;;;;;0.88;0.85;;;17.30;99.90;;;;;;4140042;28;20069;-78
2021/06/21 07:47:33;;;;;;;0.80;0.80;;;17.30;99.90;;;;;;4138195;28;20065;-77
2021/06/21 07:49:34;;;;;;;0.75;0.75;;;17.30;99.90;;;;;;4138402;28;20121;-78
2021/06/21 07:51:35;;;;;;;0.75;0.75;;;17.20;99.90;;;;;;4143970;28;20065;-78
2021/06/21 07:53:37;;;;;;;0.82;0.82;;;17.20;99.90;;;;;;4146458;28;20124;-78
2021/06/21 07:55:38;;;;;;;0.68;0.68;;;17.20;99.90;;;;;;4141473;28;20534;-78
2021/06/21 07:57:39;;;;;;;0.77;0.77;;;17.20;99.90;;;;;;4140375;28;20051;-78
2021/06/21 07:59:39;;;;;;;1.77;0.63;;;17.10;99.90;;;;;;4141839;28;20037;-77
2021/06/21 08:01:40;;;;;;;1.27;0.82;;;17.10;99.90;;;;;;4139639;28;20048;-78
2021/06/21 08:03:41;;;;;;;0.60;0.60;;;17.00;99.90;;;;;;4142550;28;20045;-78
2021/06/21 08:05:43;;;;;;;1.08;0.90;;;17.00;99.90;;;;;;4142677;28;20494;-78
2021/06/21 08:07:43;;;;;;;2.88;0.70;;;17.00;99.90;;;;;;4143468;28;21545;-78
2021/06/21 08:09:44;;;;;;;0.60;0.60;;;16.90;99.90;;;;;;4143632;28;20053;-78
2021/06/21 08:11:45;;;;;;;0.50;0.50;;;17.00;99.90;;;;;;4129775;28;20026;-77
2021/06/21 08:13:45;;;;;;;2.47;0.73;;;16.90;99.90;;;;;;4141870;28;20674;-78
2021/06/21 08:15:47;;;;;;;1.48;0.50;;;16.90;99.90;;;;;;4138933;28;20140;-78
2021/06/21 08:17:48;;;;;;;1.10;0.50;;;16.90;99.90;;;;;;4143548;28;20064;-78
2021/06/21 08:19:50;;;;;;;0.50;0.50;;;16.80;99.90;;;;;;4143291;28;20045;-78
2021/06/21 08:21:51;;;;;;;0.60;0.57;;;16.90;99.90;;;;;;4139450;28;21121;-78
2021/06/21 08:23:53;;;;;;;0.85;0.38;;;16.80;99.90;;;;;;4138265;28;20568;-78
2021/06/21 08:25:53;;;;;;;0.63;0.40;;;16.80;99.90;;;;;;4138274;28;20120;-78
2021/06/21 08:27:54;;;;;;;0.93;0.70;;;16.80;99.90;;;;;;4139732;28;20034;-78
2021/06/21 08:29:55;;;;;;;0.68;0.50;;;16.80;99.90;;;;;;4141354;28;20052;-78
2021/06/21 08:31:55;;;;;;;0.47;0.47;;;16.80;99.90;;;;;;4139899;28;20049;-78
2021/06/21 08:33:56;;;;;;;1.08;0.77;;;16.80;99.90;;;;;;4139764;28;20037;-78
2021/06/21 08:35:57;;;;;;;0.77;0.70;;;16.80;99.90;;;;;;4141193;28;20599;-78
2021/06/21 08:37:57;;;;;;;0.30;0.30;;;16.80;99.90;;;;;;4140850;28;20046;-78
2021/06/21 08:39:58;;;;;;;1.80;0.20;;;16.80;99.90;;;;;;4138917;28;20042;-78
2021/06/21 08:41:59;;;;;;;0.90;0.40;;;16.90;99.90;;;;;;4122060;28;20104;-78
2021/06/21 08:44:00;;;;;;;0.43;0.32;;;16.80;99.90;;;;;;4142137;28;20396;-78
2021/06/21 08:46:02;;;;;;;0.90;0.30;;;16.80;99.90;;;;;;4139333;28;20050;-79
2021/06/21 08:48:07;;;;;;;0.40;0.32;;;16.80;99.90;;;;;;4123959;28;20085;-79
2021/06/21 08:50:11;;;;;;;0.10;0.10;;;16.80;99.90;;;;;;4141945;28;20438;-78
2021/06/21 08:52:13;;;;;;;0.20;0.20;;;16.80;99.90;;;;;;4140763;28;20321;-78
2021/06/21 08:54:14;;;;;;;;;;;16.80;99.90;;;;;;4144469;28;20172;-78
2021/06/21 08:56:15;;;;;;;0.77;0.22;;;16.80;99.90;;;;;;4139007;28;19924;-78
2021/06/21 08:58:15;;;;;;;0.28;0.28;;;16.80;99.90;;;;;;4129191;28;20414;-78
2021/06/21 09:00:18;;;;;;;1.15;0.40;;;16.80;99.90;;;;;;4141881;28;20516;-78
2021/06/21 09:02:19;;;;;;;1.10;0.28;;;16.90;99.90;;;;;;4139297;28;20025;-79
2021/06/21 09:04:22;;;;;;;0.60;0.60;;;16.90;99.90;;;;;;4138475;28;20052;-78
2021/06/21 09:06:23;;;;;;;1.83;0.40;;;16.90;99.90;;;;;;4124203;28;20587;-78
2021/06/21 09:08:24;;;;;;;3.63;0.30;;;16.80;99.90;;;;;;4143057;28;20049;-78
2021/06/21 09:10:27;;;;;;;0.20;0.20;;;16.80;99.90;;;;;;4142396;28;20068;-78
2021/06/21 09:12:30;;;;;;;0.35;0.35;;;16.80;99.90;;;;;;4138400;28;20117;-78
2021/06/21 09:14:35;;;;;;;0.30;0.30;;;16.80;99.90;;;;;;4130423;28;20485;-78
2021/06/21 09:16:43;;;;;;;0.68;0.30;;;16.80;99.90;;;;;;4143439;28;20049;-78
2021/06/21 09:18:43;;;;;;;0.50;0.30;;;16.80;99.90;;;;;;4141939;28;20034;-78
2021/06/21 09:20:45;;;;;;;0.20;0.20;;;16.80;99.90;;;;;;4145423;28;20061;-78
2021/06/21 09:23:01;;;;;;;0.55;0.50;;;16.70;99.90;;;;;;4147100;28;20048;-78
2021/06/21 09:25:16;;;;;;;1.02;0.20;;;16.80;99.90;;;;;;4145403;28;20509;-78
2021/06/21 09:27:18;;;;;;;0.20;0.20;;;16.70;99.90;;;;;;4150452;28;20084;-78
2021/06/21 09:29:36;;;;;;;0.38;0.30;;;16.70;99.90;;;;;;4128513;28;20109;-78
2021/06/21 09:31:57;;;;;;;0.30;0.30;;;16.70;99.90;;;;;;4147667;28;20081;-78
2021/06/21 09:34:15;;;;;;;0.85;0.30;;;16.60;99.90;;;;;;4143834;28;20057;-78
2021/06/21 09:36:28;;;;;;;0.70;0.50;;;16.60;99.90;;;;;;4146307;28;20112;-78
2021/06/21 09:38:29;;;;;;;1.27;0.40;;;16.60;99.90;;;;;;4147363;28;20045;-78
2021/06/21 09:40:35;;;;;;;0.70;0.30;;;16.60;99.90;;;;;;4151057;28;20088;-78
2021/06/21 09:42:36;;;;;;;0.20;0.20;;;16.60;99.90;;;;;;4146050;28;20038;-79
2021/06/21 09:44:41;;;;;;;0.28;0.28;;;16.60;99.90;;;;;;4144287;28;20030;-78
2021/06/21 09:46:41;;;;;;;0.55;0.28;;;16.60;99.90;;;;;;4126363;28;20109;-78
2021/06/21 09:48:48;;;;;;;0.43;0.30;;;16.60;99.90;;;;;;4142378;28;20095;-78
2021/06/21 09:50:49;;;;;;;0.43;0.22;;;16.60;99.90;;;;;;4137567;28;20030;-78
2021/06/21 09:53:00;;;;;;;0.38;0.30;;;16.50;99.90;;;;;;4143283;28;20096;-78
2021/06/21 09:55:09;;;;;;;2.83;0.60;;;16.50;99.90;;;;;;4145361;28;20718;-79
2021/06/21 09:57:13;;;;;;;0.85;0.40;;;16.60;99.90;;;;;;4142875;28;20042;-79
2021/06/21 09:59:35;;;;;;;1.65;0.38;;;16.50;99.90;;;;;;4127242;28;20042;-78
2021/06/21 10:01:35;;;;;;;0.20;0.20;;;16.60;99.90;;;;;;4126515;28;20041;-78
2021/06/21 10:03:40;;;;;;;0.47;0.20;;;16.50;99.90;;;;;;4131514;28;20069;-78
2021/06/21 10:06:07;;;;;;;0.20;0.20;;;16.50;99.90;;;;;;4150209;28;20042;-78
2021/06/21 10:08:11;;;;;;;0.40;0.30;;;16.50;99.90;;;;;;4147422;28;20425;-78
2021/06/21 10:10:17;;;;;;;0.50;0.38;;;16.50;99.90;;;;;;4150649;28;20030;-78
2021/06/21 10:12:22;;;;;;;0.70;0.25;;;16.40;99.90;;;;;;4147354;28;20049;-78
2021/06/21 10:14:28;;;;;;;0.20;0.20;;;16.50;99.90;;;;;;4144493;28;20128;-78
2021/06/21 10:16:31;;;;;;;2.17;0.20;;;16.40;99.90;;;;;;4150469;28;20060;-78
2021/06/21 10:18:32;;;;;;;0.10;0.10;;;16.40;99.90;;;;;;4150971;28;20584;-78
2021/06/21 10:20:33;;;;;;;0.40;0.40;;;16.50;99.90;;;;;;4149724;28;20121;-78
2021/06/21 10:22:35;;;;;;;0.30;0.28;;;16.40;99.90;;;;;;4151972;28;20044;-77
2021/06/21 10:24:37;;;;;;;0.35;0.25;;;16.40;99.90;;;;;;4152235;28;20041;-78
2021/06/21 10:26:40;;;;;;;0.20;0.10;;;16.30;99.90;;;;;;4148138;28;20034;-78
2021/06/21 10:28:41;;;;;;;0.40;0.20;;;16.40;99.90;;;;;;4143910;28;20943;-78
2021/06/21 10:30:43;;;;;;;0.10;0.10;;;16.40;99.90;;;;;;4147642;28;20085;-78
2021/06/21 10:32:52;;;;;;;0.10;0.10;;;16.40;99.90;;;;;;4129609;28;20081;-78
2021/06/21 10:34:54;;;;;;;0.20;0.20;;;16.50;99.90;;;;;;4149414;28;20196;-78
2021/06/21 10:36:57;;;;;;;0.20;0.20;;;16.60;99.90;;;;;;4150155;28;20038;-78
2021/06/21 10:39:12;;;;;;;0.38;0.20;;;16.70;99.90;;;;;;4147806;28;20125;-79
2021/06/21 10:41:13;;;;;;;0.75;0.40;;;16.80;99.90;;;;;;4147630;28;20129;-78